createdAt,value
2022-08-05T00:00:50.101Z,100119.66
2022-08-05T00:01:51.273Z,100118.98
2022-08-05T00:02:55.157Z,100113.30
2022-08-05T00:03:57.596Z,100113.16
2022-08-05T00:05:00.194Z,100111.62
2022-08-05T00:06:22.077Z,100114.86
2022-08-05T00:07:26.789Z,100112.05
2022-08-05T00:08:34.950Z,100119.25
2022-08-05T00:09:19.744Z,100115.70
2022-08-05T00:10:20.639Z,100109.22
2022-08-05T00:11:34.484Z,100110.93
2022-08-05T00:12:28.806Z,100114.31
2022-08-05T00:13:38.715Z,100105.02
2022-08-05T00:14:40.186Z,100104.01
2022-08-05T00:15:54.969Z,100104.01
2022-08-05T00:16:52.433Z,100106.27
2022-08-05T00:17:51.372Z,100101.60
2022-08-05T00:18:53.427Z,100100.91
2022-08-05T00:20:01.886Z,100103.31
2022-08-05T00:20:59.958Z,100098.22
2022-08-05T00:22:03.213Z,100092.30
2022-08-05T00:23:13.024Z,100092.30
2022-08-05T00:24:16.124Z,100081.14
2022-08-05T00:25:14.972Z,100099.20
2022-08-05T00:26:19.372Z,100096.52
2022-08-05T00:27:21.741Z,100095.95
2022-08-05T00:28:29.703Z,100094.56
2022-08-05T00:29:32.951Z,100103.30
2022-08-05T00:30:34.044Z,100100.48
2022-08-05T00:31:53.635Z,100099.61
2022-08-05T00:32:40.654Z,100093.83
2022-08-05T00:34:56.410Z,100089.48
2022-08-05T00:35:03.689Z,100093.69
2022-08-05T00:36:16.333Z,100092.86
2022-08-05T00:37:13.159Z,100092.72
2022-08-05T00:37:59.518Z,100091.15
2022-08-05T00:39:03.807Z,100087.21
2022-08-05T00:40:09.396Z,100090.59
2022-08-05T00:41:12.281Z,100088.92
2022-08-05T00:42:31.956Z,100082.40
2022-08-05T00:43:18.912Z,100090.59
2022-08-05T00:44:20.999Z,100094.84
2022-08-05T00:45:37.875Z,100087.74
2022-08-05T00:46:42.634Z,100087.34
2022-08-05T00:47:56.367Z,100085.22
2022-08-05T00:48:51.530Z,100084.94
2022-08-05T00:49:44.779Z,100090.86
2022-08-05T00:50:48.780Z,100088.33
2022-08-05T00:51:52.384Z,100076.76
2022-08-05T00:52:55.489Z,100083.52
2022-08-05T00:54:02.722Z,100079.86
2022-08-05T00:55:03.545Z,100084.95
2022-08-05T00:56:07.699Z,100088.88
2022-08-05T00:57:10.416Z,100083.92
2022-08-05T00:58:14.586Z,100088.84
2022-08-05T00:59:16.742Z,100093.92
2022-08-05T01:00:20.002Z,100093.06
2022-08-05T01:01:42.205Z,100085.19
2022-08-05T01:02:27.265Z,100081.80
2022-08-05T01:03:33.333Z,100081.20
2022-08-05T01:04:33.647Z,100089.41
2022-08-05T01:05:36.151Z,100087.45
2022-08-05T01:06:38.396Z,100086.72
2022-08-05T01:07:41.541Z,100087.44
2022-08-05T01:08:44.977Z,100088.55
2022-08-05T01:09:55.536Z,100086.14
2022-08-05T01:11:06.488Z,100085.44
2022-08-05T01:12:18.628Z,100088.95
2022-08-05T01:13:58.611Z,100078.25
2022-08-05T01:14:49.766Z,100084.89
2022-08-05T01:15:55.519Z,100084.37
2022-08-05T01:17:12.261Z,100096.16
2022-08-05T01:18:17.841Z,100093.06
2022-08-05T01:20:02.184Z,100083.88
2022-08-05T01:21:01.907Z,100090.09
2022-08-05T01:22:30.816Z,100078.36
2022-08-05T01:24:13.218Z,100089.97
2022-08-05T01:25:53.705Z,100092.38
2022-08-05T01:27:17.528Z,100087.70
2022-08-05T01:28:25.658Z,100080.80
2022-08-05T01:29:39.963Z,100086.32
2022-08-05T01:30:53.802Z,100080.83
2022-08-05T01:31:54.386Z,100070.13
2022-08-05T01:32:58.946Z,100071.84
2022-08-05T01:34:13.900Z,100076.58
2022-08-05T01:35:51.756Z,100089.84
2022-08-05T01:36:28.222Z,100089.53
2022-08-05T01:37:37.076Z,100086.95
2022-08-05T01:38:42.482Z,100086.64
2022-08-05T01:39:48.031Z,100087.22
2022-08-05T01:40:52.364Z,100083.12
2022-08-05T01:41:56.641Z,100079.62
2022-08-05T01:43:01.718Z,100080.52
2022-08-05T01:44:09.974Z,100087.83
2022-08-05T01:45:14.479Z,100083.34
2022-08-05T01:46:42.985Z,100082.47
2022-08-05T01:47:38.974Z,100083.34
2022-08-05T01:48:35.255Z,100082.17
2022-08-05T01:50:00.287Z,100088.97
2022-08-05T01:50:51.294Z,100093.15
2022-08-05T01:51:49.744Z,100090.06
2022-08-05T01:52:57.419Z,100088.97
2022-08-05T01:54:02.161Z,100087.44
2022-08-05T01:55:10.848Z,100086.91
2022-08-05T01:58:11.776Z,100090.90
2022-08-05T01:58:13.736Z,100092.17
2022-08-05T01:58:40.901Z,100095.16
2022-08-05T01:59:39.956Z,100097.84
2022-08-05T02:00:48.600Z,100098.77
2022-08-05T02:01:54.770Z,100098.77
2022-08-05T02:03:03.517Z,100099.11
2022-08-05T02:04:07.772Z,100099.15
2022-08-05T02:05:14.144Z,100097.97
2022-08-05T02:06:36.928Z,100099.28
2022-08-05T02:07:23.692Z,100106.45
2022-08-05T02:08:29.733Z,100105.88
2022-08-05T02:09:30.562Z,100105.88
2022-08-05T02:10:38.115Z,100107.59
2022-08-05T02:11:48.093Z,100106.75
2022-08-05T02:14:14.497Z,100104.84
2022-08-05T02:15:33.376Z,100102.85
2022-08-05T02:16:36.090Z,100105.84
2022-08-05T02:18:31.560Z,100104.13
2022-08-05T02:19:00.308Z,100100.88
2022-08-05T02:20:07.041Z,100098.73
2022-08-05T02:21:14.802Z,100099.64
2022-08-05T02:22:26.628Z,100104.07
2022-08-05T02:23:27.870Z,100101.87
2022-08-05T02:24:33.696Z,100106.28
2022-08-05T02:25:50.286Z,100104.38
2022-08-05T02:26:54.574Z,100105.58
2022-08-05T02:27:58.048Z,100107.05
2022-08-05T02:29:02.251Z,100102.66
2022-08-05T02:30:09.705Z,100105.88
2022-08-05T02:31:24.390Z,100110.66
2022-08-05T02:32:31.415Z,100116.06
2022-08-05T02:33:38.753Z,100102.09
2022-08-05T02:34:42.774Z,100100.83
2022-08-05T02:35:56.226Z,100103.00
2022-08-05T02:36:59.482Z,100110.70
2022-08-05T02:38:02.152Z,100100.29
2022-08-05T02:39:08.852Z,100108.19
2022-08-05T02:40:16.033Z,100102.56
2022-08-05T02:41:20.501Z,100109.20
2022-08-05T02:42:26.023Z,100106.01
2022-08-05T02:43:32.347Z,100104.57
2022-08-05T02:44:38.990Z,100105.33
2022-08-05T02:45:51.456Z,100104.09
2022-08-05T02:46:59.720Z,100090.68
2022-08-05T02:48:07.405Z,100098.74
2022-08-05T02:48:58.993Z,100105.37
2022-08-05T02:50:02.295Z,100104.39
2022-08-05T02:51:05.877Z,100104.39
2022-08-05T02:52:29.652Z,100104.22
2022-08-05T02:53:24.317Z,100100.11
2022-08-05T02:54:35.047Z,100105.20
2022-08-05T02:55:54.300Z,100098.72
2022-08-05T02:56:39.211Z,100103.08
2022-08-05T02:58:10.887Z,100097.33
2022-08-05T02:58:51.408Z,100099.31
2022-08-05T02:59:54.955Z,100090.00
2022-08-05T03:01:00.859Z,100098.18
2022-08-05T03:02:05.631Z,100097.65
2022-08-05T03:03:10.467Z,100099.73
2022-08-05T03:04:14.484Z,100089.14
2022-08-05T03:05:21.919Z,100088.99
2022-08-05T03:06:56.561Z,100087.18
2022-08-05T03:08:00.526Z,100086.33
2022-08-05T03:08:36.837Z,100083.09
2022-08-05T03:09:51.621Z,100085.36
2022-08-05T03:11:53.327Z,100086.65
2022-08-05T03:11:58.055Z,100088.05
2022-08-05T03:14:03.022Z,100093.00
2022-08-05T03:15:06.791Z,100089.61
2022-08-05T03:16:09.626Z,100094.56
2022-08-05T03:17:13.732Z,100091.60
2022-08-05T03:18:17.419Z,100088.64
2022-08-05T03:19:33.544Z,100098.50
2022-08-05T03:20:24.494Z,100094.56
2022-08-05T03:21:28.889Z,100095.95
2022-08-05T03:22:32.841Z,100095.13
2022-08-05T03:23:38.363Z,100095.13
2022-08-05T03:24:44.623Z,100093.41
2022-08-05T03:26:04.628Z,100102.89
2022-08-05T03:26:53.152Z,100095.53
2022-08-05T03:28:00.255Z,100098.50
2022-08-05T03:29:01.443Z,100100.34
2022-08-05T03:30:08.403Z,100096.55
2022-08-05T03:31:09.481Z,100098.50
2022-08-05T03:32:14.606Z,100098.22
2022-08-05T03:33:17.657Z,100090.31
2022-08-05T03:34:20.292Z,100092.02
2022-08-05T03:35:24.811Z,100100.48
2022-08-05T03:36:30.346Z,100105.98
2022-08-05T03:37:31.167Z,100105.11
2022-08-05T03:38:38.763Z,100101.47
2022-08-05T03:40:01.647Z,100104.42
2022-08-05T03:41:03.978Z,100103.87
2022-08-05T03:42:06.677Z,100108.95
2022-08-05T03:43:58.634Z,100108.38
2022-08-05T03:44:12.989Z,100105.25
2022-08-05T03:45:22.176Z,100097.23
2022-08-05T03:46:21.460Z,100097.52
2022-08-05T03:47:25.911Z,100095.53
2022-08-05T03:48:30.436Z,100093.13
2022-08-05T03:49:51.443Z,100094.42
2022-08-05T03:50:46.829Z,100098.36
2022-08-05T03:55:49.977Z,100092.30
2022-08-05T03:56:00.847Z,100091.74
2022-08-05T03:56:11.556Z,100099.74
2022-08-05T03:57:16.374Z,100093.13
2022-08-05T03:58:22.358Z,100103.30
2022-08-05T03:59:47.101Z,100104.14
2022-08-05T04:00:46.453Z,100108.39
2022-08-05T04:01:52.365Z,100112.74
2022-08-05T04:02:58.383Z,100114.87
2022-08-05T04:04:10.106Z,100113.34
2022-08-05T04:05:09.847Z,100112.19
2022-08-05T04:06:12.941Z,100113.48
2022-08-05T04:07:16.271Z,100116.30
2022-08-05T04:08:34.747Z,100110.11
2022-08-05T04:09:26.811Z,100117.14
2022-08-05T04:10:37.186Z,100113.77
2022-08-05T04:11:47.441Z,100111.49
2022-08-05T04:13:50.120Z,100116.02
2022-08-05T04:14:46.964Z,100116.58
2022-08-05T04:15:52.845Z,100115.60
2022-08-05T04:16:54.461Z,100118.28
2022-08-05T04:17:59.988Z,100113.91
2022-08-05T04:19:01.953Z,100116.05
2022-08-05T04:20:05.276Z,100113.91
2022-08-05T04:21:11.149Z,100114.06
2022-08-05T04:22:14.467Z,100110.95
2022-08-05T04:23:18.839Z,100112.66
2022-08-05T04:24:22.939Z,100108.13
2022-08-05T04:25:57.853Z,100115.06
2022-08-05T04:26:32.259Z,100115.63
2022-08-05T04:27:41.532Z,100120.56
2022-08-05T04:28:37.524Z,100117.02
2022-08-05T04:29:41.601Z,100118.73
2022-08-05T04:30:45.101Z,100111.52
2022-08-05T04:31:48.542Z,100080.00
2022-08-05T04:32:51.692Z,100114.20
2022-08-05T04:34:19.158Z,100119.42
2022-08-05T04:34:58.071Z,100112.66
2022-08-05T04:36:11.095Z,100108.27
2022-08-05T04:37:04.430Z,100116.58
2022-08-05T04:38:07.094Z,100110.82
2022-08-05T04:39:09.248Z,100108.27
2022-08-05T04:40:14.102Z,100105.02
2022-08-05T04:41:18.371Z,100106.00
2022-08-05T04:42:20.760Z,100114.34
2022-08-05T04:43:24.711Z,100114.34
2022-08-05T04:44:30.266Z,100106.88
2022-08-05T04:45:48.129Z,100100.63
2022-08-05T04:46:38.181Z,100098.67
2022-08-05T04:47:42.834Z,100109.10
2022-08-05T04:48:44.416Z,100103.32
2022-08-05T04:50:02.568Z,100107.55
2022-08-05T04:51:03.593Z,100105.58
2022-08-05T04:52:00.470Z,100100.77
2022-08-05T04:53:01.182Z,100104.28
2022-08-05T04:54:03.624Z,100110.80
2022-08-05T04:55:14.716Z,100114.59
2022-08-05T04:56:33.124Z,100117.73
2022-08-05T04:57:14.776Z,100118.59
2022-08-05T04:58:21.587Z,100109.83
2022-08-05T04:59:37.415Z,100121.69
2022-08-05T05:00:26.656Z,100118.01
2022-08-05T05:01:33.548Z,100110.36
2022-08-05T05:02:36.334Z,100117.99
2022-08-05T05:03:42.252Z,100115.28
2022-08-05T05:04:47.633Z,100113.73
2022-08-05T05:06:35.997Z,100118.48
2022-08-05T05:06:57.393Z,100118.78
2022-08-05T05:07:56.413Z,100118.63
2022-08-05T05:08:59.976Z,100123.69
2022-08-05T05:10:03.865Z,100128.33
2022-08-05T05:11:05.918Z,100126.95
2022-08-05T05:12:08.304Z,100125.80
2022-08-05T05:13:15.111Z,100127.12
2022-08-05T05:14:17.571Z,100124.84
2022-08-05T05:15:57.197Z,100126.08
2022-08-05T05:16:30.341Z,100129.78
2022-08-05T05:17:55.531Z,100136.14
2022-08-05T05:18:52.425Z,100133.16
2022-08-05T05:19:47.489Z,100137.12
2022-08-05T05:20:50.070Z,100145.77
2022-08-05T05:21:55.685Z,100136.72
2022-08-05T05:22:58.162Z,100130.36
2022-08-05T05:24:04.113Z,100136.72
2022-08-05T05:25:16.420Z,100131.63
2022-08-05T05:26:10.526Z,100130.36
2022-08-05T05:27:16.233Z,100132.07
2022-08-05T05:28:18.076Z,100131.09
2022-08-05T05:29:20.247Z,100133.77
2022-08-05T05:30:29.770Z,100130.65
2022-08-05T05:31:35.972Z,100136.31
2022-08-05T05:32:33.033Z,100141.69
2022-08-05T05:33:43.378Z,100137.44
2022-08-05T05:34:39.233Z,100136.02
2022-08-05T05:35:42.515Z,100139.12
2022-08-05T05:36:47.025Z,100133.59
2022-08-05T05:38:00.213Z,100144.48
2022-08-05T05:38:58.143Z,100141.40
2022-08-05T05:40:01.103Z,100136.14
2022-08-05T05:41:03.384Z,100134.29
2022-08-05T05:42:07.851Z,100144.48
2022-08-05T05:43:10.334Z,100147.32
2022-08-05T05:44:35.980Z,100147.32
2022-08-05T05:45:17.495Z,100143.25
2022-08-05T05:46:19.763Z,100145.06
2022-08-05T05:47:30.588Z,100145.64
2022-08-05T05:48:28.116Z,100141.40
2022-08-05T05:49:30.501Z,100143.54
2022-08-05T05:50:35.315Z,100149.46
2022-08-05T05:51:49.541Z,100148.77
2022-08-05T05:52:46.528Z,100141.97
2022-08-05T05:53:57.865Z,100147.34
2022-08-05T05:54:53.925Z,100145.96
2022-08-05T05:56:01.071Z,100143.70
2022-08-05T05:57:00.513Z,100152.60
2022-08-05T05:58:03.012Z,100151.48
2022-08-05T05:59:07.598Z,100153.58
2022-08-05T06:00:15.498Z,100148.49
2022-08-05T06:01:17.948Z,100151.91
2022-08-05T06:02:25.304Z,100146.53
2022-08-05T06:03:53.818Z,100152.89
2022-08-05T06:04:30.525Z,100151.48
2022-08-05T06:05:32.866Z,100147.06
2022-08-05T06:06:36.122Z,100148.19
2022-08-05T06:07:41.730Z,100146.34
2022-08-05T06:08:42.334Z,100142.81
2022-08-05T06:10:00.149Z,100143.91
2022-08-05T06:10:52.523Z,100143.91
2022-08-05T06:11:59.972Z,100143.51
2022-08-05T06:12:59.653Z,100150.41
2022-08-05T06:14:02.200Z,100147.44
2022-08-05T06:15:06.217Z,100140.24
2022-08-05T06:16:30.386Z,100147.00
2022-08-05T06:17:22.476Z,100149.39
2022-08-05T06:18:18.647Z,100140.20
2022-08-05T06:19:26.228Z,100134.54
2022-08-05T06:20:25.308Z,100143.44
2022-08-05T06:21:36.866Z,100140.64
2022-08-05T06:22:34.318Z,100144.42
2022-08-05T06:23:44.103Z,100142.03
2022-08-05T06:24:48.186Z,100141.48
2022-08-05T06:26:13.360Z,100141.87
2022-08-05T06:26:53.175Z,100141.44
2022-08-05T06:28:11.135Z,100142.01
2022-08-05T06:29:03.293Z,100138.45
2022-08-05T06:30:17.853Z,100147.78
2022-08-05T06:31:17.695Z,100142.11
2022-08-05T06:32:24.959Z,100149.60
2022-08-05T06:33:33.101Z,100144.70
2022-08-05T06:34:26.471Z,100143.23
2022-08-05T06:36:08.093Z,100145.23
2022-08-05T06:36:45.984Z,100142.98
2022-08-05T06:37:55.796Z,100143.84
2022-08-05T06:38:47.088Z,100149.50
2022-08-05T06:39:46.481Z,100141.30
2022-08-05T06:40:49.408Z,100154.44
2022-08-05T06:41:51.734Z,100151.89
2022-08-05T06:42:54.496Z,100154.00
2022-08-05T06:44:00.294Z,100155.84
2022-08-05T06:45:05.359Z,100152.29
2022-08-05T06:46:07.137Z,100146.91
2022-08-05T06:47:10.322Z,100151.84
2022-08-05T06:48:53.483Z,100157.99
2022-08-05T06:49:17.824Z,100149.22
2022-08-05T06:50:21.846Z,100152.63
2022-08-05T06:51:29.966Z,100153.75
2022-08-05T06:52:36.876Z,100155.41
2022-08-05T06:53:32.837Z,100156.78
2022-08-05T06:54:37.103Z,100157.33
2022-08-05T06:55:42.055Z,100161.03
2022-08-05T06:56:54.923Z,100162.02
2022-08-05T06:58:02.506Z,100154.97
2022-08-05T06:58:52.180Z,100158.83
2022-08-05T06:59:56.493Z,100164.36
2022-08-05T07:01:01.702Z,100163.81
2022-08-05T07:02:04.183Z,100163.52
2022-08-05T07:03:07.502Z,100160.14
2022-08-05T07:04:10.553Z,100161.52
2022-08-05T07:05:15.366Z,100158.14
2022-08-05T07:06:20.777Z,100164.90
2022-08-05T07:07:24.155Z,100171.00
2022-08-05T07:08:27.917Z,100169.59
2022-08-05T07:09:32.544Z,100174.73
2022-08-05T07:10:38.317Z,100156.39
2022-08-05T07:11:40.901Z,100164.41
2022-08-05T07:12:43.790Z,100169.64
2022-08-05T07:13:58.804Z,100173.46
2022-08-05T07:14:53.968Z,100178.25
2022-08-05T07:16:01.847Z,100169.49
2022-08-05T07:17:59.045Z,100176.05
2022-08-05T07:18:09.819Z,100166.11
2022-08-05T07:19:10.936Z,100170.48
2022-08-05T07:20:33.103Z,100176.28
2022-08-05T07:21:25.847Z,100169.05
2022-08-05T07:22:28.858Z,100166.95
2022-08-05T07:23:29.954Z,100170.61
2022-08-05T07:24:35.013Z,100175.66
2022-08-05T07:25:55.070Z,100165.56
2022-08-05T07:26:43.270Z,100165.80
2022-08-05T07:27:58.180Z,100170.94
2022-08-05T07:29:00.083Z,100172.08
2022-08-05T07:30:27.479Z,100170.20
2022-08-05T07:31:07.945Z,100169.41
2022-08-05T07:32:10.751Z,100158.80
2022-08-05T07:33:16.865Z,100166.98
2022-08-05T07:34:21.479Z,100161.19
2022-08-05T07:35:56.766Z,100158.65
2022-08-05T07:36:26.239Z,100161.30
2022-08-05T07:37:35.975Z,100165.22
2022-08-05T07:38:43.270Z,100167.22
2022-08-05T07:40:04.014Z,100166.35
2022-08-05T07:40:44.954Z,100164.08
2022-08-05T07:42:07.991Z,100168.02
2022-08-05T07:42:52.413Z,100160.37
2022-08-05T07:43:56.870Z,100160.62
2022-08-05T07:45:00.443Z,100160.32
2022-08-05T07:46:03.375Z,100161.95
2022-08-05T07:47:07.988Z,100164.38
2022-08-05T07:48:11.227Z,100162.98
2022-08-05T07:49:16.415Z,100160.59
2022-08-05T07:50:24.969Z,100161.69
2022-08-05T07:51:37.175Z,100169.20
2022-08-05T07:52:29.232Z,100172.61
2022-08-05T07:53:36.833Z,100169.09
2022-08-05T07:54:38.637Z,100168.81
2022-08-05T07:55:44.335Z,100168.36
2022-08-05T07:57:02.672Z,100175.45
2022-08-05T07:57:51.241Z,100182.05
2022-08-05T07:58:57.786Z,100176.25
2022-08-05T07:59:58.393Z,100185.32
2022-08-05T08:01:01.059Z,100174.43
2022-08-05T08:02:05.483Z,100181.31
2022-08-05T08:03:13.578Z,100176.72
2022-08-05T08:04:15.935Z,100180.84
2022-08-05T08:05:18.557Z,100183.80
2022-08-05T08:06:21.357Z,100171.87
2022-08-05T08:07:24.532Z,100175.36
2022-08-05T08:08:29.123Z,100175.06
2022-08-05T08:09:31.425Z,100178.14
2022-08-05T08:10:34.055Z,100181.61
2022-08-05T08:11:47.653Z,100187.62
2022-08-05T08:12:49.288Z,100177.64
2022-08-05T08:13:49.527Z,100179.85
2022-08-05T08:14:52.317Z,100176.53
2022-08-05T08:16:35.199Z,100184.69
2022-08-05T08:16:59.184Z,100179.55
2022-08-05T08:18:04.261Z,100183.73
2022-08-05T08:19:06.961Z,100175.52
2022-08-05T08:20:43.401Z,100190.55
2022-08-05T08:21:17.679Z,100187.72
2022-08-05T08:22:23.866Z,100185.89
2022-08-05T08:24:01.279Z,100185.61
2022-08-05T08:24:50.961Z,100182.13
2022-08-05T08:26:00.854Z,100178.94
2022-08-05T08:26:45.841Z,100174.41
2022-08-05T08:27:51.404Z,100175.00
2022-08-05T08:28:59.072Z,100172.05
2022-08-05T08:30:06.484Z,100175.77
2022-08-05T08:31:01.766Z,100180.61
2022-08-05T08:32:06.403Z,100188.14
2022-08-05T08:33:13.916Z,100177.92
2022-08-05T08:34:18.556Z,100174.91
2022-08-05T08:35:21.474Z,100177.77
2022-08-05T08:36:38.691Z,100184.16
2022-08-05T08:37:29.910Z,100182.84
2022-08-05T08:38:35.665Z,100179.67
2022-08-05T08:39:38.417Z,100184.59
2022-08-05T08:40:45.701Z,100187.92
2022-08-05T08:41:50.849Z,100189.44
2022-08-05T08:42:53.727Z,100186.14
2022-08-05T08:45:18.819Z,100189.30
2022-08-05T08:45:19.669Z,100183.36
2022-08-05T08:46:09.996Z,100177.80
2022-08-05T08:47:47.779Z,100181.31
2022-08-05T08:48:36.116Z,100186.90
2022-08-05T08:50:23.287Z,100176.56
2022-08-05T08:50:52.866Z,100155.37
2022-08-05T08:52:03.573Z,100187.28
2022-08-05T08:52:47.371Z,100186.31
2022-08-05T08:53:49.244Z,100188.69
2022-08-05T08:54:52.430Z,100187.47
2022-08-05T08:56:02.613Z,100187.47
2022-08-05T08:57:00.877Z,100184.80
2022-08-05T08:58:03.153Z,100185.12
2022-08-05T08:59:10.006Z,100192.67
2022-08-05T09:00:11.488Z,100177.28
2022-08-05T09:01:18.276Z,100192.96
2022-08-05T09:02:23.103Z,100190.70
2022-08-05T09:03:28.498Z,100189.42
2022-08-05T09:04:37.105Z,100186.69
2022-08-05T09:06:07.582Z,100182.61
2022-08-05T09:06:46.048Z,100187.02
2022-08-05T09:07:56.713Z,100187.08
2022-08-05T09:08:59.265Z,100185.31
2022-08-05T09:10:02.674Z,100185.87
2022-08-05T09:11:08.399Z,100185.23
2022-08-05T09:12:30.028Z,100183.22
2022-08-05T09:13:17.350Z,100187.58
2022-08-05T09:14:56.383Z,100181.48
2022-08-05T09:15:24.615Z,100188.52
2022-08-05T09:16:28.028Z,100188.02
2022-08-05T09:17:40.526Z,100183.77
2022-08-05T09:18:42.635Z,100187.50
2022-08-05T09:20:01.462Z,100184.28
2022-08-05T09:20:46.367Z,100180.42
2022-08-05T09:22:22.911Z,100183.77
2022-08-05T09:23:18.766Z,100184.36
2022-08-05T09:24:16.530Z,100188.63
2022-08-05T09:25:23.736Z,100190.48
2022-08-05T09:26:23.986Z,100190.52
2022-08-05T09:28:05.788Z,100193.20
2022-08-05T09:28:40.946Z,100187.83
2022-08-05T09:29:47.508Z,100189.20
2022-08-05T09:30:56.685Z,100188.38
2022-08-05T09:32:51.179Z,100189.87
2022-08-05T09:33:09.285Z,100185.03
2022-08-05T09:34:13.545Z,100189.05
2022-08-05T09:35:26.428Z,100192.74
2022-08-05T09:36:21.797Z,100198.84
2022-08-05T09:38:17.953Z,100199.84
2022-08-05T09:38:32.296Z,100196.80
2022-08-05T09:39:41.441Z,100188.86
2022-08-05T09:40:52.571Z,100195.59
2022-08-05T09:42:04.193Z,100194.91
2022-08-05T09:43:08.479Z,100195.73
2022-08-05T09:44:11.175Z,100206.36
2022-08-05T09:46:04.865Z,100202.13
2022-08-05T09:47:55.598Z,100196.42
2022-08-05T09:48:43.232Z,100201.97
2022-08-05T09:49:57.079Z,100203.02
2022-08-05T09:51:01.856Z,100195.08
2022-08-05T09:52:22.984Z,100201.81
2022-08-05T09:53:53.410Z,100198.78
2022-08-05T09:54:31.843Z,100204.02
2022-08-05T09:55:56.860Z,100201.83
2022-08-05T09:56:51.459Z,100202.48
2022-08-05T09:57:47.091Z,100193.37
2022-08-05T10:00:21.732Z,100208.28
2022-08-05T10:01:31.789Z,100206.23
2022-08-05T10:02:39.724Z,100200.19
2022-08-05T10:03:59.497Z,100203.22
2022-08-05T10:05:11.627Z,100196.34
2022-08-05T10:06:18.798Z,100200.91
2022-08-05T10:08:10.449Z,100207.99
2022-08-05T10:08:36.206Z,100209.36
2022-08-05T10:09:44.832Z,100204.62
2022-08-05T10:10:48.267Z,100203.62
2022-08-05T10:11:51.675Z,100203.45
2022-08-05T10:12:59.754Z,100196.67
2022-08-05T10:14:05.482Z,100209.69
2022-08-05T10:15:17.191Z,100202.94
2022-08-05T10:16:33.980Z,100201.90
2022-08-05T10:17:40.707Z,100202.59
2022-08-05T10:18:41.013Z,100200.89
2022-08-05T10:20:03.534Z,100198.84
2022-08-05T10:20:54.871Z,100207.63
2022-08-05T10:21:57.754Z,100202.55
2022-08-05T10:23:01.131Z,100205.58
2022-08-05T10:24:10.574Z,100208.64
2022-08-05T10:25:09.519Z,100204.24
2022-08-05T10:26:14.890Z,100206.77
2022-08-05T10:27:18.561Z,100206.95
2022-08-05T10:28:30.370Z,100201.90
2022-08-05T10:30:07.209Z,100203.60
2022-08-05T10:32:48.711Z,100208.67
2022-08-05T10:32:51.665Z,100205.11
2022-08-05T10:32:52.340Z,100209.84
2022-08-05T10:33:46.310Z,100206.64
2022-08-05T10:34:50.916Z,100215.08
2022-08-05T10:35:59.199Z,100200.06
2022-08-05T10:37:00.019Z,100207.84
2022-08-05T10:38:04.908Z,100209.52
2022-08-05T10:39:25.223Z,100211.89
2022-08-05T10:40:43.439Z,100206.97
2022-08-05T10:42:01.067Z,100212.34
2022-08-05T10:43:12.482Z,100210.95
2022-08-05T10:44:17.546Z,100206.61
2022-08-05T10:45:39.890Z,100200.30
2022-08-05T10:46:54.411Z,100202.45
2022-08-05T10:48:31.478Z,100203.56
2022-08-05T10:49:10.094Z,100196.13
2022-08-05T10:50:33.286Z,100199.36
2022-08-05T10:51:21.877Z,100204.42
2022-08-05T10:52:46.974Z,100192.90
2022-08-05T10:53:58.272Z,100195.61
2022-08-05T10:55:07.766Z,100203.73
2022-08-05T10:56:25.228Z,100194.61
2022-08-05T10:57:25.746Z,100192.90
2022-08-05T10:58:35.741Z,100188.49
2022-08-05T11:00:03.223Z,100196.57
2022-08-05T11:00:44.111Z,100194.79
2022-08-05T11:01:55.128Z,100181.42
2022-08-05T11:03:23.720Z,100188.66
2022-08-05T11:04:22.972Z,100182.55
2022-08-05T11:05:29.261Z,100173.59
2022-08-05T11:06:33.591Z,100175.05
2022-08-05T11:08:01.733Z,100174.94
2022-08-05T11:09:16.776Z,100177.41
2022-08-05T11:10:22.711Z,100174.09
2022-08-05T11:11:52.792Z,100177.56
2022-08-05T11:12:42.832Z,100168.78
2022-08-05T11:13:57.853Z,100177.63
2022-08-05T11:15:19.300Z,100177.63
2022-08-05T11:16:33.754Z,100174.92
2022-08-05T11:17:58.883Z,100179.61
2022-08-05T11:18:34.688Z,100172.40
2022-08-05T11:20:10.500Z,100172.81
2022-08-05T11:20:46.810Z,100178.22
2022-08-05T11:21:49.738Z,100177.56
2022-08-05T11:22:54.101Z,100182.97
2022-08-05T11:24:04.359Z,100173.41
2022-08-05T11:26:05.849Z,100170.82
2022-08-05T11:26:33.415Z,100164.69
2022-08-05T11:27:45.801Z,100169.86
2022-08-05T11:28:43.122Z,100166.39
2022-08-05T11:29:49.741Z,100169.39
2022-08-05T11:30:59.099Z,100162.38
2022-08-05T11:32:25.111Z,100152.52
2022-08-05T11:33:34.492Z,100162.70
2022-08-05T11:34:52.037Z,100162.45
2022-08-05T11:36:07.752Z,100155.52
2022-08-05T11:38:26.474Z,100165.78
2022-08-05T11:38:36.525Z,100167.87
2022-08-05T11:39:35.416Z,100165.41
2022-08-05T11:41:35.426Z,100171.80
2022-08-05T11:42:09.318Z,100168.52
2022-08-05T11:43:21.097Z,100159.37
2022-08-05T11:44:53.123Z,100163.36
2022-08-05T11:46:14.933Z,100167.08
2022-08-05T11:46:58.634Z,100164.12
2022-08-05T11:47:49.511Z,100163.86
2022-08-05T11:48:51.384Z,100168.09
2022-08-05T11:49:58.102Z,100161.78
2022-08-05T11:51:01.014Z,100163.86
2022-08-05T11:52:08.817Z,100171.77
2022-08-05T11:53:09.826Z,100167.49
2022-08-05T11:54:14.847Z,100165.80
2022-08-05T11:55:18.621Z,100162.98
2022-08-05T11:56:25.400Z,100160.42
2022-08-05T11:57:30.616Z,100161.47
2022-08-05T11:58:36.689Z,100161.42
2022-08-05T11:59:41.406Z,100161.78
2022-08-05T12:00:44.460Z,100164.83
2022-08-05T12:02:03.303Z,100157.71
2022-08-05T12:03:29.105Z,100158.39
2022-08-05T12:04:25.132Z,100161.98
2022-08-05T12:05:36.478Z,100153.20
2022-08-05T12:06:35.250Z,100159.19
2022-08-05T12:08:03.274Z,100156.66
2022-08-05T12:08:51.918Z,100155.55
2022-08-05T12:09:56.447Z,100155.92
2022-08-05T12:11:00.038Z,100155.91
2022-08-05T12:12:06.178Z,100152.66
2022-08-05T12:13:17.431Z,100150.22
2022-08-05T12:14:14.124Z,100150.59
2022-08-05T12:15:20.288Z,100142.35
2022-08-05T12:16:31.190Z,100139.47
2022-08-05T12:18:03.342Z,100145.08
2022-08-05T12:18:40.389Z,100145.09
2022-08-05T12:20:26.511Z,100142.94
2022-08-05T12:20:51.735Z,100137.41
2022-08-05T12:21:54.022Z,100136.54
2022-08-05T12:23:12.398Z,100137.11
2022-08-05T12:24:21.350Z,100122.24
2022-08-05T12:25:28.513Z,100121.68
2022-08-05T12:26:45.462Z,100124.47
2022-08-05T12:27:52.938Z,100122.51
2022-08-05T12:28:51.890Z,100129.03
2022-08-05T12:30:09.754Z,100128.58
2022-08-05T12:31:14.653Z,100127.83
2022-08-05T12:32:18.472Z,100129.15
2022-08-05T12:33:27.924Z,100124.20
2022-08-05T12:34:30.075Z,100128.87
2022-08-05T12:35:36.890Z,100127.68
2022-08-05T12:36:39.413Z,100130.38
2022-08-05T12:37:44.615Z,100127.85
2022-08-05T12:38:47.918Z,100115.52
2022-08-05T12:39:51.805Z,100119.52